sensor_id;sensor_type;location;lat;lon;timestamp;P1;durP1;ratioP1;P2;durP2;ratioP2
19521;SDS011;9905;52.126;5.596;2022-11-09T00:00:35;3.60;;;3.40;;
19521;SDS011;9905;52.126;5.596;2022-11-09T00:03:02;4.22;;;3.72;;
19521;SDS011;9905;52.126;5.596;2022-11-09T00:05:28;4.13;;;3.75;;
19521;SDS011;9905;52.126;5.596;2022-11-09T00:07:55;3.83;;;3.63;;
19521;SDS011;9905;52.126;5.596;2022-11-09T00:10:22;6.28;;;3.97;;
19521;SDS011;9905;52.126;5.596;2022-11-09T00:12:49;3.88;;;3.67;;
19521;SDS011;9905;52.126;5.596;2022-11-09T00:15:17;3.72;;;3.42;;
19521;SDS011;9905;52.126;5.596;2022-11-09T00:17:43;3.75;;;3.50;;
19521;SDS011;9905;52.126;5.596;2022-11-09T00:20:10;4.30;;;4.07;;
19521;SDS011;9905;52.126;5.596;2022-11-09T00:22:37;4.18;;;3.97;;
19521;SDS011;9905;52.126;5.596;2022-11-09T00:25:04;4.40;;;3.78;;
19521;SDS011;9905;52.126;5.596;2022-11-09T00:27:32;4.10;;;3.80;;
19521;SDS011;9905;52.126;5.596;2022-11-09T00:29:58;3.88;;;3.58;;
19521;SDS011;9905;52.126;5.596;2022-11-09T00:32:26;3.70;;;3.40;;
19521;SDS011;9905;52.126;5.596;2022-11-09T00:34:53;3.75;;;3.55;;
19521;SDS011;9905;52.126;5.596;2022-11-09T00:37:20;3.88;;;3.55;;
19521;SDS011;9905;52.126;5.596;2022-11-09T00:39:46;3.92;;;3.63;;
19521;SDS011;9905;52.126;5.596;2022-11-09T00:42:13;3.80;;;3.60;;
19521;SDS011;9905;52.126;5.596;2022-11-09T00:44:40;3.70;;;3.45;;
19521;SDS011;9905;52.126;5.596;2022-11-09T00:47:07;4.30;;;4.10;;
19521;SDS011;9905;52.126;5.596;2022-11-09T00:49:35;5.85;;;4.15;;
19521;SDS011;9905;52.126;5.596;2022-11-09T00:52:01;4.10;;;3.72;;
19521;SDS011;9905;52.126;5.596;2022-11-09T00:54:28;3.90;;;3.60;;
19521;SDS011;9905;52.126;5.596;2022-11-09T00:56:55;3.28;;;3.17;;
19521;SDS011;9905;52.126;5.596;2022-11-09T00:59:22;7.38;;;3.97;;
19521;SDS011;9905;52.126;5.596;2022-11-09T01:01:49;4.50;;;3.78;;
19521;SDS011;9905;52.126;5.596;2022-11-09T01:04:15;4.88;;;3.50;;
19521;SDS011;9905;52.126;5.596;2022-11-09T01:06:44;3.53;;;3.30;;
19521;SDS011;9905;52.126;5.596;2022-11-09T01:09:11;4.60;;;3.42;;
19521;SDS011;9905;52.126;5.596;2022-11-09T01:11:38;3.78;;;3.47;;
19521;SDS011;9905;52.126;5.596;2022-11-09T01:14:04;4.13;;;3.45;;
19521;SDS011;9905;52.126;5.596;2022-11-09T01:16:31;3.80;;;3.30;;
19521;SDS011;9905;52.126;5.596;2022-11-09T01:18:58;4.80;;;4.25;;
19521;SDS011;9905;52.126;5.596;2022-11-09T01:21:26;3.55;;;3.35;;
19521;SDS011;9905;52.126;5.596;2022-11-09T01:23:54;6.40;;;3.65;;
19521;SDS011;9905;52.126;5.596;2022-11-09T01:26:22;7.95;;;4.18;;
19521;SDS011;9905;52.126;5.596;2022-11-09T01:28:49;5.30;;;3.55;;
19521;SDS011;9905;52.126;5.596;2022-11-09T01:31:17;3.75;;;3.60;;
19521;SDS011;9905;52.126;5.596;2022-11-09T01:33:45;4.35;;;4.05;;
19521;SDS011;9905;52.126;5.596;2022-11-09T01:36:13;5.10;;;4.05;;
19521;SDS011;9905;52.126;5.596;2022-11-09T01:38:41;3.78;;;3.40;;
19521;SDS011;9905;52.126;5.596;2022-11-09T01:41:11;3.42;;;3.33;;
19521;SDS011;9905;52.126;5.596;2022-11-09T01:43:39;4.72;;;4.20;;
19521;SDS011;9905;52.126;5.596;2022-11-09T01:46:10;5.68;;;3.65;;
19521;SDS011;9905;52.126;5.596;2022-11-09T01:48:43;4.53;;;3.30;;
19521;SDS011;9905;52.126;5.596;2022-11-09T01:51:14;3.70;;;3.53;;
19521;SDS011;9905;52.126;5.596;2022-11-09T01:53:47;3.42;;;3.22;;
19521;SDS011;9905;52.126;5.596;2022-11-09T01:56:18;4.65;;;3.70;;
19521;SDS011;9905;52.126;5.596;2022-11-09T01:58:46;6.50;;;3.60;;
19521;SDS011;9905;52.126;5.596;2022-11-09T02:01:16;7.47;;;3.95;;
19521;SDS011;9905;52.126;5.596;2022-11-09T02:03:44;4.15;;;3.45;;
19521;SDS011;9905;52.126;5.596;2022-11-09T02:06:15;3.80;;;3.58;;
19521;SDS011;9905;52.126;5.596;2022-11-09T02:08:45;4.72;;;4.15;;
19521;SDS011;9905;52.126;5.596;2022-11-09T02:11:15;5.15;;;4.07;;
19521;SDS011;9905;52.126;5.596;2022-11-09T02:13:46;8.73;;;4.07;;
19521;SDS011;9905;52.126;5.596;2022-11-09T02:16:18;4.70;;;4.28;;
19521;SDS011;9905;52.126;5.596;2022-11-09T02:18:47;4.68;;;4.38;;
19521;SDS011;9905;52.126;5.596;2022-11-09T02:21:18;6.60;;;4.07;;
19521;SDS011;9905;52.126;5.596;2022-11-09T02:23:46;4.47;;;4.15;;
19521;SDS011;9905;52.126;5.596;2022-11-09T02:26:13;4.57;;;4.15;;
19521;SDS011;9905;52.126;5.596;2022-11-09T02:28:44;4.25;;;3.95;;
19521;SDS011;9905;52.126;5.596;2022-11-09T02:31:12;4.30;;;4.07;;
19521;SDS011;9905;52.126;5.596;2022-11-09T02:33:43;4.75;;;4.43;;
19521;SDS011;9905;52.126;5.596;2022-11-09T02:36:19;6.88;;;4.13;;
19521;SDS011;9905;52.126;5.596;2022-11-09T02:38:46;4.57;;;4.18;;
19521;SDS011;9905;52.126;5.596;2022-11-09T02:41:13;4.55;;;4.25;;
19521;SDS011;9905;52.126;5.596;2022-11-09T02:43:41;4.15;;;3.92;;
19521;SDS011;9905;52.126;5.596;2022-11-09T02:46:07;3.92;;;3.58;;
19521;SDS011;9905;52.126;5.596;2022-11-09T02:48:34;4.43;;;4.22;;
19521;SDS011;9905;52.126;5.596;2022-11-09T02:51:01;4.15;;;3.88;;
19521;SDS011;9905;52.126;5.596;2022-11-09T02:53:29;4.50;;;4.07;;
19521;SDS011;9905;52.126;5.596;2022-11-09T02:55:56;5.22;;;3.90;;
19521;SDS011;9905;52.126;5.596;2022-11-09T02:58:22;4.32;;;4.03;;
19521;SDS011;9905;52.126;5.596;2022-11-09T03:00:49;4.97;;;4.20;;
19521;SDS011;9905;52.126;5.596;2022-11-09T03:03:16;4.82;;;4.22;;
19521;SDS011;9905;52.126;5.596;2022-11-09T03:05:42;6.30;;;4.28;;
19521;SDS011;9905;52.126;5.596;2022-11-09T03:08:09;4.40;;;4.18;;
19521;SDS011;9905;52.126;5.596;2022-11-09T03:10:37;4.22;;;3.92;;
19521;SDS011;9905;52.126;5.596;2022-11-09T03:13:04;4.22;;;4.00;;
19521;SDS011;9905;52.126;5.596;2022-11-09T03:15:30;4.43;;;4.22;;
19521;SDS011;9905;52.126;5.596;2022-11-09T03:17:57;4.50;;;4.30;;
19521;SDS011;9905;52.126;5.596;2022-11-09T03:20:24;4.65;;;4.38;;
19521;SDS011;9905;52.126;5.596;2022-11-09T03:22:51;4.82;;;4.53;;
19521;SDS011;9905;52.126;5.596;2022-11-09T03:25:21;4.63;;;4.28;;
19521;SDS011;9905;52.126;5.596;2022-11-09T03:27:49;6.93;;;4.40;;
19521;SDS011;9905;52.126;5.596;2022-11-09T03:30:22;4.10;;;3.90;;
19521;SDS011;9905;52.126;5.596;2022-11-09T03:32:48;4.18;;;3.80;;
19521;SDS011;9905;52.126;5.596;2022-11-09T03:35:15;4.95;;;4.53;;
19521;SDS011;9905;52.126;5.596;2022-11-09T03:37:42;4.57;;;4.15;;
19521;SDS011;9905;52.126;5.596;2022-11-09T03:40:09;4.95;;;4.75;;
19521;SDS011;9905;52.126;5.596;2022-11-09T03:42:36;7.68;;;4.53;;
19521;SDS011;9905;52.126;5.596;2022-11-09T03:45:10;4.95;;;4.07;;
19521;SDS011;9905;52.126;5.596;2022-11-09T03:47:38;4.72;;;4.20;;
19521;SDS011;9905;52.126;5.596;2022-11-09T03:50:06;4.38;;;4.07;;
19521;SDS011;9905;52.126;5.596;2022-11-09T03:52:33;4.50;;;4.07;;
19521;SDS011;9905;52.126;5.596;2022-11-09T03:55:00;6.07;;;4.40;;
19521;SDS011;9905;52.126;5.596;2022-11-09T03:57:27;4.40;;;4.20;;
19521;SDS011;9905;52.126;5.596;2022-11-09T03:59:54;4.93;;;3.95;;
19521;SDS011;9905;52.126;5.596;2022-11-09T04:02:22;4.10;;;3.90;;
19521;SDS011;9905;52.126;5.596;2022-11-09T04:04:49;4.07;;;3.78;;
19521;SDS011;9905;52.126;5.596;2022-11-09T04:07:16;4.25;;;4.05;;
19521;SDS011;9905;52.126;5.596;2022-11-09T04:09:42;4.97;;;4.18;;
19521;SDS011;9905;52.126;5.596;2022-11-09T04:12:09;4.78;;;4.10;;
19521;SDS011;9905;52.126;5.596;2022-11-09T04:14:36;4.30;;;4.10;;
19521;SDS011;9905;52.126;5.596;2022-11-09T04:17:03;4.82;;;4.43;;
19521;SDS011;9905;52.126;5.596;2022-11-09T04:19:31;3.83;;;3.63;;
19521;SDS011;9905;52.126;5.596;2022-11-09T04:21:57;4.28;;;3.88;;
19521;SDS011;9905;52.126;5.596;2022-11-09T04:24:24;3.85;;;3.60;;
19521;SDS011;9905;52.126;5.596;2022-11-09T04:26:51;4.43;;;4.13;;
19521;SDS011;9905;52.126;5.596;2022-11-09T04:29:17;4.35;;;4.05;;
19521;SDS011;9905;52.126;5.596;2022-11-09T04:31:46;4.35;;;3.88;;
19521;SDS011;9905;52.126;5.596;2022-11-09T04:34:13;4.60;;;4.13;;
19521;SDS011;9905;52.126;5.596;2022-11-09T04:36:41;4.60;;;3.70;;
19521;SDS011;9905;52.126;5.596;2022-11-09T04:39:08;4.18;;;3.92;;
19521;SDS011;9905;52.126;5.596;2022-11-09T04:41:35;8.18;;;4.22;;
19521;SDS011;9905;52.126;5.596;2022-11-09T04:44:02;4.22;;;3.80;;
19521;SDS011;9905;52.126;5.596;2022-11-09T04:46:29;5.82;;;4.28;;
19521;SDS011;9905;52.126;5.596;2022-11-09T04:48:56;4.70;;;4.30;;
19521;SDS011;9905;52.126;5.596;2022-11-09T04:51:23;4.47;;;4.18;;
19521;SDS011;9905;52.126;5.596;2022-11-09T04:53:51;4.22;;;3.92;;
19521;SDS011;9905;52.126;5.596;2022-11-09T04:56:18;4.20;;;3.92;;
19521;SDS011;9905;52.126;5.596;2022-11-09T04:58:44;6.05;;;3.90;;
19521;SDS011;9905;52.126;5.596;2022-11-09T05:01:12;6.68;;;4.28;;
19521;SDS011;9905;52.126;5.596;2022-11-09T05:03:39;4.93;;;4.03;;
19521;SDS011;9905;52.126;5.596;2022-11-09T05:06:07;4.45;;;4.15;;
19521;SDS011;9905;52.126;5.596;2022-11-09T05:08:48;4.72;;;3.80;;
19521;SDS011;9905;52.126;5.596;2022-11-09T05:11:16;4.00;;;3.83;;
19521;SDS011;9905;52.126;5.596;2022-11-09T05:13:43;4.30;;;3.92;;
19521;SDS011;9905;52.126;5.596;2022-11-09T05:16:10;4.57;;;4.20;;
19521;SDS011;9905;52.126;5.596;2022-11-09T05:18:37;3.85;;;3.65;;
19521;SDS011;9905;52.126;5.596;2022-11-09T05:21:04;4.97;;;3.60;;
19521;SDS011;9905;52.126;5.596;2022-11-09T05:23:31;5.90;;;3.65;;
19521;SDS011;9905;52.126;5.596;2022-11-09T05:26:16;4.20;;;3.85;;
19521;SDS011;9905;52.126;5.596;2022-11-09T05:28:43;4.07;;;3.65;;
19521;SDS011;9905;52.126;5.596;2022-11-09T05:31:10;5.75;;;4.05;;
19521;SDS011;9905;52.126;5.596;2022-11-09T05:33:37;4.47;;;4.18;;
19521;SDS011;9905;52.126;5.596;2022-11-09T05:36:03;4.45;;;4.15;;
19521;SDS011;9905;52.126;5.596;2022-11-09T05:38:31;3.95;;;3.70;;
19521;SDS011;9905;52.126;5.596;2022-11-09T05:40:57;6.55;;;4.30;;
19521;SDS011;9905;52.126;5.596;2022-11-09T05:43:26;4.55;;;4.15;;
19521;SDS011;9905;52.126;5.596;2022-11-09T05:45:52;4.15;;;3.80;;
19521;SDS011;9905;52.126;5.596;2022-11-09T05:48:19;3.90;;;3.70;;
19521;SDS011;9905;52.126;5.596;2022-11-09T05:50:46;5.90;;;4.28;;
19521;SDS011;9905;52.126;5.596;2022-11-09T05:53:12;6.82;;;4.15;;
19521;SDS011;9905;52.126;5.596;2022-11-09T05:55:39;4.47;;;4.07;;
19521;SDS011;9905;52.126;5.596;2022-11-09T05:58:06;4.03;;;3.90;;
19521;SDS011;9905;52.126;5.596;2022-11-09T06:00:35;7.10;;;4.60;;
19521;SDS011;9905;52.126;5.596;2022-11-09T06:03:02;4.65;;;4.35;;
19521;SDS011;9905;52.126;5.596;2022-11-09T06:05:30;5.03;;;4.43;;
19521;SDS011;9905;52.126;5.596;2022-11-09T06:08:00;5.80;;;5.50;;
19521;SDS011;9905;52.126;5.596;2022-11-09T06:10:27;9.50;;;4.22;;
19521;SDS011;9905;52.126;5.596;2022-11-09T06:12:54;9.13;;;4.63;;
19521;SDS011;9905;52.126;5.596;2022-11-09T06:15:21;6.80;;;4.35;;
19521;SDS011;9905;52.126;5.596;2022-11-09T06:17:51;7.43;;;4.43;;
19521;SDS011;9905;52.126;5.596;2022-11-09T06:20:18;4.78;;;4.20;;
19521;SDS011;9905;52.126;5.596;2022-11-09T06:22:44;4.65;;;4.32;;
19521;SDS011;9905;52.126;5.596;2022-11-09T06:25:18;5.40;;;4.40;;
19521;SDS011;9905;52.126;5.596;2022-11-09T06:27:44;4.20;;;3.92;;
19521;SDS011;9905;52.126;5.596;2022-11-09T06:30:11;5.85;;;4.72;;
19521;SDS011;9905;52.126;5.596;2022-11-09T06:32:38;4.75;;;4.30;;
19521;SDS011;9905;52.126;5.596;2022-11-09T06:35:08;4.63;;;4.40;;
19521;SDS011;9905;52.126;5.596;2022-11-09T06:37:35;5.45;;;5.07;;
19521;SDS011;9905;52.126;5.596;2022-11-09T06:40:02;4.50;;;4.30;;
19521;SDS011;9905;52.126;5.596;2022-11-09T06:42:29;5.03;;;4.80;;
19521;SDS011;9905;52.126;5.596;2022-11-09T06:44:56;6.07;;;5.03;;
19521;SDS011;9905;52.126;5.596;2022-11-09T06:47:22;6.15;;;5.55;;
19521;SDS011;9905;52.126;5.596;2022-11-09T06:49:49;5.03;;;4.63;;
19521;SDS011;9905;52.126;5.596;2022-11-09T06:52:17;5.20;;;4.57;;
19521;SDS011;9905;52.126;5.596;2022-11-09T06:54:44;6.25;;;5.50;;
19521;SDS011;9905;52.126;5.596;2022-11-09T06:57:10;5.57;;;4.97;;
19521;SDS011;9905;52.126;5.596;2022-11-09T06:59:37;5.53;;;4.95;;
19521;SDS011;9905;52.126;5.596;2022-11-09T07:02:04;5.13;;;4.82;;
19521;SDS011;9905;52.126;5.596;2022-11-09T07:04:31;5.28;;;4.80;;
19521;SDS011;9905;52.126;5.596;2022-11-09T07:06:58;5.20;;;4.82;;
19521;SDS011;9905;52.126;5.596;2022-11-09T07:09:26;6.07;;;5.00;;
19521;SDS011;9905;52.126;5.596;2022-11-09T07:11:53;5.70;;;5.30;;
19521;SDS011;9905;52.126;5.596;2022-11-09T07:14:20;5.35;;;4.95;;
19521;SDS011;9905;52.126;5.596;2022-11-09T07:16:47;5.38;;;5.10;;
19521;SDS011;9905;52.126;5.596;2022-11-09T07:19:14;8.35;;;5.40;;
19521;SDS011;9905;52.126;5.596;2022-11-09T07:21:41;5.60;;;5.18;;
19521;SDS011;9905;52.126;5.596;2022-11-09T07:24:07;6.15;;;5.57;;
19521;SDS011;9905;52.126;5.596;2022-11-09T07:26:35;9.93;;;5.78;;
19521;SDS011;9905;52.126;5.596;2022-11-09T07:29:02;5.90;;;5.43;;
19521;SDS011;9905;52.126;5.596;2022-11-09T07:31:29;5.75;;;5.25;;
19521;SDS011;9905;52.126;5.596;2022-11-09T07:33:56;5.30;;;4.85;;
19521;SDS011;9905;52.126;5.596;2022-11-09T07:36:26;8.98;;;5.45;;
19521;SDS011;9905;52.126;5.596;2022-11-09T07:38:53;5.30;;;4.82;;
19521;SDS011;9905;52.126;5.596;2022-11-09T07:41:19;5.85;;;5.45;;
19521;SDS011;9905;52.126;5.596;2022-11-09T07:43:47;5.82;;;4.90;;
19521;SDS011;9905;52.126;5.596;2022-11-09T07:46:14;8.50;;;5.70;;
19521;SDS011;9905;52.126;5.596;2022-11-09T07:48:41;6.55;;;5.13;;
19521;SDS011;9905;52.126;5.596;2022-11-09T07:51:08;6.18;;;5.30;;
19521;SDS011;9905;52.126;5.596;2022-11-09T07:53:34;5.63;;;5.25;;
19521;SDS011;9905;52.126;5.596;2022-11-09T07:56:02;5.28;;;4.97;;
19521;SDS011;9905;52.126;5.596;2022-11-09T07:58:29;5.15;;;4.72;;
19521;SDS011;9905;52.126;5.596;2022-11-09T08:00:57;5.57;;;5.13;;
19521;SDS011;9905;52.126;5.596;2022-11-09T08:03:24;5.53;;;4.95;;
19521;SDS011;9905;52.126;5.596;2022-11-09T08:05:51;5.70;;;4.68;;
19521;SDS011;9905;52.126;5.596;2022-11-09T08:08:18;5.57;;;5.18;;
19521;SDS011;9905;52.126;5.596;2022-11-09T08:10:45;5.50;;;4.82;;
19521;SDS011;9905;52.126;5.596;2022-11-09T08:13:15;6.38;;;5.57;;
19521;SDS011;9905;52.126;5.596;2022-11-09T08:15:42;6.05;;;5.45;;
19521;SDS011;9905;52.126;5.596;2022-11-09T08:18:11;6.28;;;5.22;;
19521;SDS011;9905;52.126;5.596;2022-11-09T08:20:39;5.65;;;4.90;;
19521;SDS011;9905;52.126;5.596;2022-11-09T08:23:06;4.65;;;4.30;;
19521;SDS011;9905;52.126;5.596;2022-11-09T08:25:33;9.07;;;5.82;;
19521;SDS011;9905;52.126;5.596;2022-11-09T08:28:00;5.03;;;4.70;;
19521;SDS011;9905;52.126;5.596;2022-11-09T08:30:28;6.80;;;5.20;;
19521;SDS011;9905;52.126;5.596;2022-11-09T08:32:55;5.32;;;4.32;;
19521;SDS011;9905;52.126;5.596;2022-11-09T08:35:24;4.70;;;4.50;;
19521;SDS011;9905;52.126;5.596;2022-11-09T08:37:52;5.03;;;4.55;;
19521;SDS011;9905;52.126;5.596;2022-11-09T08:40:20;4.95;;;4.20;;
19521;SDS011;9905;52.126;5.596;2022-11-09T08:42:49;6.05;;;4.25;;
19521;SDS011;9905;52.126;5.596;2022-11-09T08:45:15;5.57;;;4.45;;
19521;SDS011;9905;52.126;5.596;2022-11-09T08:47:43;8.85;;;4.65;;
19521;SDS011;9905;52.126;5.596;2022-11-09T08:50:10;9.25;;;4.50;;
19521;SDS011;9905;52.126;5.596;2022-11-09T08:52:40;5.45;;;4.10;;
19521;SDS011;9905;52.126;5.596;2022-11-09T08:55:07;6.82;;;4.03;;
19521;SDS011;9905;52.126;5.596;2022-11-09T08:57:34;5.03;;;4.57;;
19521;SDS011;9905;52.126;5.596;2022-11-09T09:00:01;4.80;;;3.97;;
19521;SDS011;9905;52.126;5.596;2022-11-09T09:02:29;4.28;;;3.92;;
19521;SDS011;9905;52.126;5.596;2022-11-09T09:04:55;4.43;;;4.18;;
19521;SDS011;9905;52.126;5.596;2022-11-09T09:07:22;4.50;;;4.22;;
19521;SDS011;9905;52.126;5.596;2022-11-09T09:09:50;6.82;;;4.15;;
19521;SDS011;9905;52.126;5.596;2022-11-09T09:12:17;4.07;;;3.67;;
19521;SDS011;9905;52.126;5.596;2022-11-09T09:14:43;5.57;;;3.92;;
19521;SDS011;9905;52.126;5.596;2022-11-09T09:17:10;7.22;;;4.05;;
19521;SDS011;9905;52.126;5.596;2022-11-09T09:19:37;4.30;;;3.90;;
19521;SDS011;9905;52.126;5.596;2022-11-09T09:22:04;3.70;;;3.50;;
19521;SDS011;9905;52.126;5.596;2022-11-09T09:24:30;3.85;;;3.50;;
19521;SDS011;9905;52.126;5.596;2022-11-09T09:26:59;3.72;;;3.42;;
19521;SDS011;9905;52.126;5.596;2022-11-09T09:29:26;5.43;;;3.90;;
19521;SDS011;9905;52.126;5.596;2022-11-09T09:31:53;6.32;;;3.63;;
19521;SDS011;9905;52.126;5.596;2022-11-09T09:34:20;3.65;;;3.45;;
19521;SDS011;9905;52.126;5.596;2022-11-09T09:36:46;6.93;;;3.35;;
19521;SDS011;9905;52.126;5.596;2022-11-09T09:39:13;4.30;;;3.60;;
19521;SDS011;9905;52.126;5.596;2022-11-09T09:41:44;5.05;;;3.50;;
19521;SDS011;9905;52.126;5.596;2022-11-09T09:44:19;5.30;;;3.17;;
19521;SDS011;9905;52.126;5.596;2022-11-09T09:46:51;3.50;;;3.15;;
19521;SDS011;9905;52.126;5.596;2022-11-09T09:49:24;9.05;;;3.50;;
19521;SDS011;9905;52.126;5.596;2022-11-09T09:51:54;6.90;;;3.20;;
19521;SDS011;9905;52.126;5.596;2022-11-09T09:54:25;3.38;;;2.97;;
19521;SDS011;9905;52.126;5.596;2022-11-09T09:56:57;4.75;;;3.63;;
19521;SDS011;9905;52.126;5.596;2022-11-09T09:59:29;3.67;;;3.10;;
19521;SDS011;9905;52.126;5.596;2022-11-09T10:02:01;4.47;;;3.10;;
19521;SDS011;9905;52.126;5.596;2022-11-09T10:04:31;3.50;;;3.22;;
19521;SDS011;9905;52.126;5.596;2022-11-09T10:07:02;6.63;;;3.50;;
19521;SDS011;9905;52.126;5.596;2022-11-09T10:09:48;3.47;;;3.20;;
19521;SDS011;9905;52.126;5.596;2022-11-09T10:12:41;5.93;;;3.30;;
19521;SDS011;9905;52.126;5.596;2022-11-09T10:15:22;3.40;;;3.20;;
19521;SDS011;9905;52.126;5.596;2022-11-09T10:17:58;6.25;;;3.53;;
19521;SDS011;9905;52.126;5.596;2022-11-09T10:20:40;8.18;;;3.25;;
19521;SDS011;9905;52.126;5.596;2022-11-09T10:23:33;4.13;;;3.30;;
19521;SDS011;9905;52.126;5.596;2022-11-09T10:26:10;3.65;;;3.20;;
19521;SDS011;9905;52.126;5.596;2022-11-09T10:28:41;7.97;;;3.45;;
19521;SDS011;9905;52.126;5.596;2022-11-09T10:31:12;5.97;;;2.85;;
19521;SDS011;9905;52.126;5.596;2022-11-09T10:33:42;5.50;;;3.13;;
19521;SDS011;9905;52.126;5.596;2022-11-09T10:36:15;4.55;;;3.38;;
19521;SDS011;9905;52.126;5.596;2022-11-09T10:38:48;3.35;;;3.05;;
19521;SDS011;9905;52.126;5.596;2022-11-09T10:41:20;4.90;;;3.80;;
19521;SDS011;9905;52.126;5.596;2022-11-09T10:43:53;3.47;;;2.95;;
19521;SDS011;9905;52.126;5.596;2022-11-09T10:46:21;4.57;;;3.17;;
19521;SDS011;9905;52.126;5.596;2022-11-09T10:48:49;3.88;;;2.90;;
19521;SDS011;9905;52.126;5.596;2022-11-09T10:54:14;5.93;;;3.00;;
19521;SDS011;9905;52.126;5.596;2022-11-09T10:56:44;4.97;;;3.40;;
19521;SDS011;9905;52.126;5.596;2022-11-09T11:02:38;5.72;;;3.75;;
19521;SDS011;9905;52.126;5.596;2022-11-09T11:07:57;5.93;;;3.00;;
19521;SDS011;9905;52.126;5.596;2022-11-09T11:10:44;3.60;;;3.10;;
19521;SDS011;9905;52.126;5.596;2022-11-09T11:13:17;8.27;;;3.38;;
19521;SDS011;9905;52.126;5.596;2022-11-09T11:15:48;3.58;;;3.28;;
19521;SDS011;9905;52.126;5.596;2022-11-09T11:18:18;3.20;;;2.90;;
19521;SDS011;9905;52.126;5.596;2022-11-09T11:21:03;6.40;;;3.08;;
19521;SDS011;9905;52.126;5.596;2022-11-09T11:23:32;4.68;;;3.10;;
19521;SDS011;9905;52.126;5.596;2022-11-09T11:26:14;3.85;;;3.00;;
19521;SDS011;9905;52.126;5.596;2022-11-09T11:28:50;4.28;;;2.72;;
19521;SDS011;9905;52.126;5.596;2022-11-09T11:31:21;5.60;;;2.53;;
19521;SDS011;9905;52.126;5.596;2022-11-09T11:33:49;2.67;;;2.47;;
19521;SDS011;9905;52.126;5.596;2022-11-09T11:36:18;2.75;;;2.65;;
19521;SDS011;9905;52.126;5.596;2022-11-09T11:38:52;3.90;;;3.22;;
19521;SDS011;9905;52.126;5.596;2022-11-09T11:41:37;3.85;;;2.60;;
19521;SDS011;9905;52.126;5.596;2022-11-09T11:44:15;7.25;;;2.92;;
19521;SDS011;9905;52.126;5.596;2022-11-09T11:46:54;4.72;;;3.55;;
19521;SDS011;9905;52.126;5.596;2022-11-09T11:49:34;5.20;;;3.05;;
19521;SDS011;9905;52.126;5.596;2022-11-09T11:52:22;3.00;;;2.80;;
19521;SDS011;9905;52.126;5.596;2022-11-09T11:55:03;9.63;;;3.33;;
19521;SDS011;9905;52.126;5.596;2022-11-09T11:57:41;4.10;;;2.97;;
19521;SDS011;9905;52.126;5.596;2022-11-09T12:00:17;2.95;;;2.72;;
19521;SDS011;9905;52.126;5.596;2022-11-09T12:02:59;5.70;;;2.85;;
19521;SDS011;9905;52.126;5.596;2022-11-09T12:08:50;8.20;;;3.05;;
19521;SDS011;9905;52.126;5.596;2022-11-09T12:11:29;4.40;;;2.80;;
19521;SDS011;9905;52.126;5.596;2022-11-09T12:14:07;3.03;;;2.70;;
19521;SDS011;9905;52.126;5.596;2022-11-09T12:16:44;2.67;;;2.58;;
19521;SDS011;9905;52.126;5.596;2022-11-09T12:19:26;9.30;;;3.10;;
19521;SDS011;9905;52.126;5.596;2022-11-09T12:22:07;2.90;;;2.67;;
19521;SDS011;9905;52.126;5.596;2022-11-09T12:24:42;2.70;;;2.50;;
19521;SDS011;9905;52.126;5.596;2022-11-09T12:27:34;6.95;;;2.63;;
19521;SDS011;9905;52.126;5.596;2022-11-09T12:30:10;2.72;;;2.58;;
19521;SDS011;9905;52.126;5.596;2022-11-09T12:32:40;4.55;;;3.00;;
19521;SDS011;9905;52.126;5.596;2022-11-09T12:35:15;4.55;;;2.88;;
19521;SDS011;9905;52.126;5.596;2022-11-09T12:37:49;3.00;;;2.80;;
19521;SDS011;9905;52.126;5.596;2022-11-09T12:40:21;3.70;;;2.67;;
19521;SDS011;9905;52.126;5.596;2022-11-09T12:42:50;2.92;;;2.72;;
19521;SDS011;9905;52.126;5.596;2022-11-09T12:45:23;3.85;;;3.10;;
19521;SDS011;9905;52.126;5.596;2022-11-09T12:47:54;3.50;;;2.75;;
19521;SDS011;9905;52.126;5.596;2022-11-09T12:50:24;4.32;;;3.03;;
19521;SDS011;9905;52.126;5.596;2022-11-09T12:52:54;4.10;;;2.70;;
19521;SDS011;9905;52.126;5.596;2022-11-09T12:55:22;2.78;;;2.58;;
19521;SDS011;9905;52.126;5.596;2022-11-09T12:57:54;3.05;;;2.50;;
19521;SDS011;9905;52.126;5.596;2022-11-09T13:03:14;2.72;;;2.53;;
19521;SDS011;9905;52.126;5.596;2022-11-09T13:05:45;3.78;;;2.42;;
19521;SDS011;9905;52.126;5.596;2022-11-09T13:08:15;4.20;;;3.13;;
19521;SDS011;9905;52.126;5.596;2022-11-09T13:10:45;6.38;;;2.97;;
19521;SDS011;9905;52.126;5.596;2022-11-09T13:13:21;3.38;;;2.88;;
19521;SDS011;9905;52.126;5.596;2022-11-09T13:16:02;4.97;;;2.75;;
19521;SDS011;9905;52.126;5.596;2022-11-09T13:18:45;2.92;;;2.83;;
19521;SDS011;9905;52.126;5.596;2022-11-09T13:21:38;3.20;;;2.90;;
19521;SDS011;9905;52.126;5.596;2022-11-09T13:33:20;3.03;;;2.70;;
19521;SDS011;9905;52.126;5.596;2022-11-09T13:35:55;2.70;;;2.50;;
19521;SDS011;9905;52.126;5.596;2022-11-09T13:38:46;2.55;;;2.22;;
19521;SDS011;9905;52.126;5.596;2022-11-09T13:41:53;5.10;;;2.30;;
19521;SDS011;9905;52.126;5.596;2022-11-09T13:44:22;6.05;;;2.47;;
19521;SDS011;9905;52.126;5.596;2022-11-09T13:46:51;3.38;;;2.20;;
19521;SDS011;9905;52.126;5.596;2022-11-09T13:49:36;4.35;;;2.47;;
19521;SDS011;9905;52.126;5.596;2022-11-09T13:55:11;3.60;;;2.17;;
19521;SDS011;9905;52.126;5.596;2022-11-09T13:57:49;2.28;;;2.15;;
19521;SDS011;9905;52.126;5.596;2022-11-09T14:00:19;2.00;;;1.90;;
19521;SDS011;9905;52.126;5.596;2022-11-09T14:02:51;2.72;;;2.10;;
19521;SDS011;9905;52.126;5.596;2022-11-09T14:05:24;4.65;;;2.38;;
19521;SDS011;9905;52.126;5.596;2022-11-09T14:07:52;3.25;;;2.38;;
19521;SDS011;9905;52.126;5.596;2022-11-09T14:10:21;2.22;;;2.13;;
19521;SDS011;9905;52.126;5.596;2022-11-09T14:13:02;2.42;;;2.08;;
19521;SDS011;9905;52.126;5.596;2022-11-09T14:15:45;2.47;;;1.92;;
19521;SDS011;9905;52.126;5.596;2022-11-09T14:18:21;1.85;;;1.80;;
19521;SDS011;9905;52.126;5.596;2022-11-09T14:21:00;4.25;;;2.45;;
19521;SDS011;9905;52.126;5.596;2022-11-09T14:23:41;2.28;;;2.17;;
19521;SDS011;9905;52.126;5.596;2022-11-09T14:26:14;3.63;;;2.28;;
19521;SDS011;9905;52.126;5.596;2022-11-09T14:28:42;4.18;;;2.63;;
19521;SDS011;9905;52.126;5.596;2022-11-09T14:31:21;2.05;;;2.05;;
19521;SDS011;9905;52.126;5.596;2022-11-09T14:33:57;2.53;;;1.90;;
19521;SDS011;9905;52.126;5.596;2022-11-09T14:36:25;2.47;;;2.20;;
19521;SDS011;9905;52.126;5.596;2022-11-09T14:38:53;2.15;;;1.98;;
19521;SDS011;9905;52.126;5.596;2022-11-09T14:41:22;2.17;;;2.08;;
19521;SDS011;9905;52.126;5.596;2022-11-09T14:43:51;2.10;;;2.00;;
19521;SDS011;9905;52.126;5.596;2022-11-09T14:46:21;2.13;;;2.03;;
19521;SDS011;9905;52.126;5.596;2022-11-09T14:48:51;2.40;;;2.30;;
19521;SDS011;9905;52.126;5.596;2022-11-09T14:51:19;2.20;;;2.00;;
19521;SDS011;9905;52.126;5.596;2022-11-09T14:53:47;2.20;;;2.03;;
19521;SDS011;9905;52.126;5.596;2022-11-09T14:56:15;2.10;;;2.10;;
19521;SDS011;9905;52.126;5.596;2022-11-09T14:58:44;2.65;;;2.45;;
19521;SDS011;9905;52.126;5.596;2022-11-09T15:01:18;3.30;;;1.90;;
19521;SDS011;9905;52.126;5.596;2022-11-09T15:06:35;2.70;;;2.30;;
19521;SDS011;9905;52.126;5.596;2022-11-09T15:09:13;2.47;;;2.28;;
19521;SDS011;9905;52.126;5.596;2022-11-09T15:11:42;2.40;;;2.00;;
19521;SDS011;9905;52.126;5.596;2022-11-09T15:14:10;3.40;;;2.22;;
19521;SDS011;9905;52.126;5.596;2022-11-09T15:16:38;3.25;;;2.50;;
19521;SDS011;9905;52.126;5.596;2022-11-09T15:19:14;2.42;;;1.95;;
19521;SDS011;9905;52.126;5.596;2022-11-09T15:21:47;3.72;;;2.10;;
19521;SDS011;9905;52.126;5.596;2022-11-09T15:24:15;2.78;;;2.35;;
19521;SDS011;9905;52.126;5.596;2022-11-09T15:26:44;3.08;;;2.20;;
19521;SDS011;9905;52.126;5.596;2022-11-09T15:29:25;2.40;;;2.10;;
19521;SDS011;9905;52.126;5.596;2022-11-09T15:31:58;3.03;;;2.10;;
19521;SDS011;9905;52.126;5.596;2022-11-09T15:34:31;3.22;;;2.20;;
19521;SDS011;9905;52.126;5.596;2022-11-09T15:37:01;2.33;;;2.22;;
19521;SDS011;9905;52.126;5.596;2022-11-09T15:39:28;3.33;;;2.20;;
19521;SDS011;9905;52.126;5.596;2022-11-09T15:41:55;1.90;;;1.85;;
19521;SDS011;9905;52.126;5.596;2022-11-09T15:44:21;2.47;;;2.30;;
19521;SDS011;9905;52.126;5.596;2022-11-09T15:46:49;5.53;;;2.30;;